Flight Track Log - Related Links

Times and Time Zones

All times are in EDT time to prevent confusion due to time zone crossing. See the USC105 flight status page for this flight to view local times or setup timezone preferences in your user account.

Time Position Orientation Groundspeed Altitude Reporting Facility
EDT Latitude Longitude Course Direction KTS MPH feet Rate Location/Type
Fri 05:43:14 AM 41.9000 -88.2167 151° Southeast 128 147 2,100  Level Chicago TRACON
Fri 05:44:20 AM 41.8500 -88.2167 180° South 111 128 3,300 976 Climbing Chicago TRACON
Fri 05:45:17 AM 41.8392 -88.1842 114° Southeast 126 145 4,100 872 Climbing Chicago Center
Fri 05:46:17 AM 41.8325 -88.1383 101° East 127 146 5,000 496 Climbing Chicago Center
Fri 05:47:18 AM 41.8222 -88.0822 104° East 138 159 5,100 50 Climbing Chicago Center
Fri 05:48:00 AM 41.9363 -87.9223 151° Southeast  Level Estimated
Fri 05:48:18 AM 41.8122 -88.0183 102° East 157 181 5,100  Level Chicago Center
Fri 05:49:19 AM 41.8022 -87.9544 102° East 168 193 5,100 198 Level Chicago Center
Fri 05:50:19 AM 41.8047 -87.8914 87° East 177 204 5,500 520 Climbing Chicago Center
Fri 05:51:26 AM 41.8167 -87.8167 78° East 161 185 6,200 563 Climbing Chicago TRACON
Fri 05:52:27 AM 41.8167 -87.7500 90° East 162 186 6,700 397 Climbing Chicago TRACON
Fri 05:53:27 AM 41.8333 -87.7000 66° East 173 199 7,000 150 Climbing Chicago TRACON
Fri 05:54:27 AM 41.8333 -87.6333 90° East 178 205 7,000 53 Level Chicago TRACON
Fri 05:55:21 AM 41.8381 -87.5672 85° East 179 206 7,100 52 Climbing Chicago Center
Fri 05:56:22 AM 41.8450 -87.4983 82° East 185 213 7,100  Level Chicago Center
Fri 05:57:22 AM 41.8503 -87.4275 84° East 190 219 7,100  Level Chicago Center
Fri 05:58:23 AM 41.8553 -87.3569 85° East 191 220 7,100  Level Chicago Center
Fri 05:59:24 AM 41.8667 -87.2872 78° East 193 222 7,100  Level Chicago Center
Fri 06:00:25 AM 41.8731 -87.2181 83° East 188 216 7,100  Level Chicago Center
Fri 06:01:25 AM 41.8806 -87.1492 82° East 188 216 7,100 -50 Level Chicago Center
Fri 06:02:25 AM 41.8892 -87.0811 80° East 187 215 7,000 -50 Descending Chicago Center
Fri 06:03:26 AM 41.8969 -87.0125 81° East 186 214 7,000  Level Chicago Center
Fri 06:04:26 AM 41.9033 -86.9442 83° East 187 215 7,000  Level Chicago Center
Fri 06:05:27 AM 41.9125 -86.8758 80° East 188 216 7,000  Level Chicago Center
Fri 06:06:27 AM 41.9200 -86.8083 81° East 185 213 7,000  Level Chicago Center
Fri 06:07:28 AM 41.9283 -86.7389 81° East 188 216 7,000  Level Chicago Center
Fri 06:08:28 AM 41.9342 -86.6717 83° East 185 213 7,000  Level Chicago Center
Fri 06:09:29 AM 41.9419 -86.6033 81° East 186 214 7,000  Level Chicago Center
Fri 06:10:29 AM 41.9481 -86.5367 83° East 183 211 7,000  Level Chicago Center
Fri 06:11:30 AM 41.9564 -86.4683 81° East 184 212 7,000  Level Chicago Center
Fri 06:12:30 AM 41.9639 -86.3994 82° East 186 214 7,000 -50 Level Chicago Center
Fri 06:13:31 AM 41.9711 -86.3319 82° East 184 212 6,900  Descending Chicago Center
Fri 06:14:31 AM 41.9800 -86.2644 80° East 185 213 7,000 50 Climbing Chicago Center
Fri 06:15:32 AM 41.9856 -86.1958 84° East 184 212 7,000  Level Chicago Center
Fri 06:16:32 AM 41.9958 -86.1133 80° East 186 214 7,000  Level Chicago Center
Fri 06:17:33 AM 42.0031 -86.0442 82° East 186 214 7,000  Level Chicago Center
Fri 06:18:34 AM 42.0100 -85.9753 82° East 186 214 7,000  Level Chicago Center
Fri 06:19:34 AM 42.0167 -85.9072 82° East 185 213 7,000  Level Chicago Center
Fri 06:20:35 AM 42.0242 -85.8397 81° East 183 211 7,000  Level Chicago Center
Fri 06:21:35 AM 42.0311 -85.7728 82° East 182 209 7,000  Level Chicago Center
Fri 06:22:36 AM 42.0381 -85.7053 82° East 182 209 7,000  Level Chicago Center
Fri 06:23:36 AM 42.0447 -85.6372 82° East 183 211 7,000  Level Chicago Center
Fri 06:24:37 AM 42.0517 -85.5694 82° East 183 211 7,000  Level Chicago Center
Fri 06:25:37 AM 42.0592 -85.5017 82° East 183 211 7,000  Level Chicago Center
Fri 06:26:38 AM 42.0669 -85.4333 81° East 184 212 7,000  Level Chicago Center
Fri 06:27:38 AM 42.0722 -85.3653 84° East 183 211 7,000  Level Chicago Center
Fri 06:28:39 AM 42.0803 -85.2975 81° East 183 211 7,000  Level Chicago Center
Fri 06:29:40 AM 42.0894 -85.2300 80° East 183 211 7,000  Level Chicago Center
Fri 06:30:40 AM 42.0975 -85.1611 81° East 185 213 7,000  Level Chicago Center
Fri 06:31:41 AM 42.1036 -85.0914 83° East 187 215 7,000 -50 Level Chicago Center
Fri 06:32:41 AM 42.1117 -85.0231 81° East 186 214 6,900 -50 Descending Chicago Center
Fri 06:33:42 AM 42.1119 -84.9539 90° East 184 212 6,900 50 Level Chicago Center
Fri 06:34:42 AM 42.1153 -84.8853 86° East 184 212 7,000  Climbing Chicago Center
Fri 06:35:43 AM 42.1236 -84.8164 81° East 185 213 6,900  Descending Chicago Center
Fri 06:36:43 AM 42.1292 -84.7469 84° East 186 214 7,000  Climbing Chicago Center
Fri 06:37:44 AM 42.1353 -84.6794 83° East 183 211 6,900 -50 Descending Chicago Center
Fri 06:38:44 AM 42.1439 -84.6106 80° East 185 213 6,900 55 Level Chicago Center
Fri 06:39:34 AM 42.1500 -84.5467 83° East 185 213 7,000 54 Climbing Cleveland Center
Fri 06:40:35 AM 42.1525 -84.4767 87° East 183 211 7,000 -347 Level Cleveland Center
Fri 06:41:35 AM 42.1589 -84.4042 83° East 202 232 6,300 -694 Descending Cleveland Center
Fri 06:42:36 AM 42.1700 -84.3264 79° East 204 235 5,600 -595 Descending Cleveland Center
Fri 06:43:36 AM 42.1764 -84.2511 83° East 202 232 5,100 -347 Descending Cleveland Center
Fri 06:44:37 AM 42.1850 -84.1814 81° East 194 223 4,900 -197 Descending Cleveland Center
Fri 06:45:38 AM 42.1850 -84.1114 90° East 179 206 4,700 -397 Descending Cleveland Center
Fri 06:46:38 AM 42.1914 -84.0417 83° East 192 221 4,100 -545 Descending Cleveland Center
Fri 06:47:39 AM 42.2019 -83.9694 79° East 190 219 3,600 -492 Descending Cleveland Center
Fri 06:48:40 AM 42.2081 -83.9025 83° East 181 208 3,100 -298 Descending Cleveland Center
Fri 06:49:40 AM 42.2142 -83.8356 83° East 167 192 3,000 -149 Descending Cleveland Center
Fri 06:50:41 AM 42.2200 -83.7769 82° East 163 188 2,800 -248 Descending Cleveland Center
Fri 06:51:41 AM 42.2278 -83.7128 81° East 169 194 2,500 -198 Descending Cleveland Center
Fri 06:52:42 AM 42.2378 -83.6542 77° East 157 181 2,400 -375 Descending Cleveland Center
Fri 06:53:49 AM 42.2436 -83.5956 82° East 137 158 1,700 -627 Descending Cleveland Center

Login

Don't have an account? Register now (free) for customized features, flight alerts, and more!